createdAt,value
2018-03-12T00:01:38.806Z,9.13
2018-03-12T00:04:05.406Z,10.70
2018-03-12T00:06:31.980Z,10.02
2018-03-12T00:08:58.513Z,9.70
2018-03-12T00:11:25.097Z,9.20
2018-03-12T00:13:51.669Z,10.60
2018-03-12T00:16:18.308Z,9.82
2018-03-12T00:18:44.886Z,9.50
2018-03-12T00:21:11.865Z,9.70
2018-03-12T00:23:38.420Z,9.10
2018-03-12T00:26:04.993Z,9.77
2018-03-12T00:28:31.562Z,10.27
2018-03-12T00:30:58.109Z,10.30
2018-03-12T00:33:24.685Z,10.07
2018-03-12T00:35:51.639Z,9.70
2018-03-12T00:38:18.204Z,9.80
2018-03-12T00:40:44.765Z,11.20
2018-03-12T00:43:11.334Z,9.52
2018-03-12T00:45:37.970Z,9.25
2018-03-12T00:48:04.543Z,9.93
2018-03-12T00:50:31.120Z,9.85
2018-03-12T00:52:58.151Z,9.70
2018-03-12T00:55:24.730Z,10.70
2018-03-12T00:57:51.670Z,9.30
2018-03-12T01:00:18.237Z,10.25
2018-03-12T01:02:45.182Z,10.73
2018-03-12T01:05:12.213Z,10.63
2018-03-12T01:07:38.832Z,11.43
2018-03-12T01:10:05.482Z,10.65
2018-03-12T01:12:32.062Z,11.00
2018-03-12T01:14:58.597Z,11.18
2018-03-12T01:17:25.154Z,10.00
2018-03-12T01:19:51.738Z,12.68
2018-03-12T01:22:18.657Z,12.15
2018-03-12T01:24:45.230Z,11.68
2018-03-12T01:27:12.183Z,11.55
2018-03-12T01:29:38.722Z,11.00
2018-03-12T01:32:05.411Z,12.05
2018-03-12T01:34:31.985Z,12.52
2018-03-12T01:36:58.523Z,12.65
2018-03-12T01:39:25.094Z,12.95
2018-03-12T01:41:51.658Z,11.80
2018-03-12T01:44:18.190Z,12.18
2018-03-12T01:46:44.769Z,12.90
2018-03-12T01:49:11.701Z,13.02
2018-03-12T01:51:38.237Z,13.80
2018-03-12T01:54:04.847Z,14.02
2018-03-12T01:56:31.526Z,13.27
2018-03-12T01:58:58.101Z,13.75
2018-03-12T02:01:24.670Z,13.57
2018-03-12T02:03:51.778Z,12.65
2018-03-12T02:06:18.321Z,13.10
2018-03-12T02:08:44.906Z,13.50
2018-03-12T02:11:11.473Z,13.93
2018-03-12T02:13:38.502Z,13.35
2018-03-12T02:16:05.069Z,13.30
2018-03-12T02:18:31.801Z,13.60
2018-03-12T02:20:58.349Z,15.00
2018-03-12T02:23:24.927Z,15.27
2018-03-12T02:25:51.861Z,15.15
2018-03-12T02:28:18.502Z,15.93
2018-03-12T02:30:45.121Z,16.30
2018-03-12T02:33:11.702Z,15.10
2018-03-12T02:35:38.233Z,16.27
2018-03-12T02:38:05.215Z,15.88
2018-03-12T02:40:32.189Z,15.25
2018-03-12T02:42:59.094Z,14.52
2018-03-12T02:45:25.725Z,15.70
2018-03-12T02:47:52.285Z,16.90
2018-03-12T02:50:18.860Z,17.58
2018-03-12T02:52:45.502Z,18.33
2018-03-12T02:55:12.072Z,18.20
2018-03-12T02:57:38.613Z,18.20
2018-03-12T03:00:05.302Z,20.12
2018-03-12T03:02:31.866Z,17.92
2018-03-12T03:04:58.436Z,18.87
2018-03-12T03:07:25.097Z,18.67
2018-03-12T03:09:51.681Z,17.55
2018-03-12T03:12:18.584Z,18.30
2018-03-12T03:17:39.329Z,19.73
2018-03-12T03:20:05.898Z,19.23
2018-03-12T03:22:32.458Z,20.08
2018-03-12T03:24:59.046Z,19.45
2018-03-12T03:27:25.637Z,19.48
2018-03-12T03:29:52.639Z,17.27
2018-03-12T03:32:19.472Z,19.98
2018-03-12T03:34:46.066Z,20.58
2018-03-12T03:37:12.625Z,18.02
2018-03-12T03:39:39.161Z,18.42
2018-03-12T03:42:05.726Z,19.15
2018-03-12T03:44:32.358Z,18.75
2018-03-12T03:46:58.888Z,18.37
2018-03-12T03:49:25.450Z,20.33
2018-03-12T03:51:52.016Z,18.15
2018-03-12T03:54:18.578Z,16.90
2018-03-12T03:56:45.325Z,19.48
2018-03-12T03:59:11.886Z,18.17
2018-03-12T04:01:38.419Z,18.30
2018-03-12T04:04:05.025Z,19.10
2018-03-12T04:06:31.690Z,18.92
2018-03-12T04:08:58.230Z,18.90
2018-03-12T04:11:24.885Z,19.67
2018-03-12T04:13:51.459Z,16.75
2018-03-12T04:16:17.989Z,18.20
2018-03-12T04:18:44.657Z,18.10
2018-03-12T04:21:11.231Z,17.25
2018-03-12T04:23:38.180Z,16.75
2018-03-12T04:26:04.781Z,16.80
2018-03-12T04:28:31.345Z,14.40
2018-03-12T04:30:57.882Z,13.35
2018-03-12T04:33:24.437Z,13.38
2018-03-12T04:35:58.024Z,12.93
2018-03-12T04:38:24.585Z,12.55
2018-03-12T04:40:51.171Z,13.95
2018-03-12T04:43:17.708Z,13.50
2018-03-12T04:45:44.270Z,14.20
2018-03-12T04:48:10.901Z,15.40
2018-03-12T04:50:37.438Z,16.75
2018-03-12T04:53:04.000Z,16.05
2018-03-12T04:55:30.564Z,14.48
2018-03-12T04:57:57.096Z,11.77
2018-03-12T05:00:23.709Z,9.63
2018-03-12T05:02:50.273Z,8.57
2018-03-12T05:05:16.846Z,7.47
2018-03-12T05:07:43.453Z,7.00
2018-03-12T05:10:10.018Z,6.28
2018-03-12T05:12:36.680Z,5.93
2018-03-12T05:15:03.331Z,6.12
2018-03-12T05:17:29.902Z,5.15
2018-03-12T05:19:56.846Z,4.60
2018-03-12T05:22:23.484Z,4.40
2018-03-12T05:24:50.133Z,5.28
2018-03-12T05:27:16.778Z,4.85
2018-03-12T05:29:43.362Z,3.92
2018-03-12T05:32:10.305Z,3.80
2018-03-12T05:34:37.234Z,3.97
2018-03-12T05:37:03.794Z,4.18
2018-03-12T05:39:30.369Z,3.70
2018-03-12T05:41:57.291Z,4.15
2018-03-12T05:44:23.885Z,3.20
2018-03-12T05:46:50.516Z,3.90
2018-03-12T05:49:17.434Z,3.67
2018-03-12T05:51:44.002Z,3.40
2018-03-12T05:54:10.567Z,3.03
2018-03-12T05:56:37.089Z,3.70
2018-03-12T05:59:03.735Z,3.05
2018-03-12T06:01:30.302Z,3.08
2018-03-12T06:03:56.906Z,2.85
2018-03-12T06:06:23.469Z,3.05
2018-03-12T06:08:50.038Z,3.03
2018-03-12T06:11:16.568Z,2.30
2018-03-12T06:13:43.134Z,2.70
2018-03-12T06:16:09.709Z,3.20
2018-03-12T06:18:36.605Z,3.00
2018-03-12T06:21:03.177Z,2.50
2018-03-12T06:23:29.878Z,3.20
2018-03-12T06:25:56.425Z,3.55
2018-03-12T06:28:23.049Z,2.78
2018-03-12T06:30:50.041Z,3.22
2018-03-12T06:33:16.578Z,2.87
2018-03-12T06:35:43.150Z,2.05
2018-03-12T06:38:09.717Z,2.35
2018-03-12T06:40:36.257Z,2.85
2018-03-12T06:43:02.833Z,3.20
2018-03-12T06:45:29.412Z,3.00
2018-03-12T06:47:55.946Z,3.22
2018-03-12T06:50:22.964Z,3.12
2018-03-12T06:52:49.740Z,2.60
2018-03-12T06:55:16.305Z,2.55
2018-03-12T06:57:43.246Z,2.17
2018-03-12T07:00:10.202Z,2.55
2018-03-12T07:02:37.130Z,2.35
2018-03-12T07:05:03.746Z,2.58
2018-03-12T07:07:30.308Z,2.30
2018-03-12T07:09:56.842Z,2.92
2018-03-12T07:12:23.410Z,2.60
2018-03-12T07:14:50.038Z,3.80
2018-03-12T07:17:16.585Z,2.70
2018-03-12T07:19:43.153Z,3.10
2018-03-12T07:22:09.723Z,2.80
2018-03-12T07:24:36.250Z,1.70
2018-03-12T07:27:02.873Z,2.60
2018-03-12T07:29:29.486Z,2.17
2018-03-12T07:31:56.019Z,2.05
2018-03-12T07:34:22.589Z,2.05
2018-03-12T07:36:49.585Z,2.25
2018-03-12T07:39:16.133Z,3.03
2018-03-12T07:41:42.705Z,2.58
2018-03-12T07:44:09.327Z,2.87
2018-03-12T07:46:35.837Z,2.70
2018-03-12T07:49:02.791Z,6.60
2018-03-12T07:51:29.731Z,2.92
2018-03-12T07:53:56.263Z,3.37
2018-03-12T07:56:22.834Z,4.32
2018-03-12T07:58:49.797Z,4.43
2018-03-12T08:01:16.747Z,3.37
2018-03-12T08:03:43.301Z,3.53
2018-03-12T08:06:10.273Z,4.22
2018-03-12T08:08:36.802Z,3.55
2018-03-12T08:11:03.738Z,3.70
2018-03-12T08:13:30.311Z,3.92
2018-03-12T08:15:56.854Z,3.80
2018-03-12T08:18:23.825Z,3.95
2018-03-12T08:20:50.426Z,3.97
2018-03-12T08:23:16.974Z,4.05
2018-03-12T08:25:43.546Z,3.83
2018-03-12T08:28:10.507Z,4.10
2018-03-12T08:30:37.424Z,4.60
2018-03-12T08:33:04.002Z,3.95
2018-03-12T08:35:30.941Z,5.25
2018-03-12T08:37:57.479Z,4.40
2018-03-12T08:40:24.050Z,5.00
2018-03-12T08:42:50.689Z,3.72
2018-03-12T08:45:17.226Z,4.57
2018-03-12T08:47:43.789Z,5.03
2018-03-12T08:50:17.398Z,4.00
2018-03-12T08:52:43.973Z,4.07
2018-03-12T08:55:10.550Z,4.05
2018-03-12T08:57:37.085Z,3.15
2018-03-12T09:00:03.733Z,3.70
2018-03-12T09:02:30.310Z,2.45
2018-03-12T09:04:56.877Z,3.08
2018-03-12T09:07:23.446Z,2.80
2018-03-12T09:09:50.393Z,3.30
2018-03-12T09:12:16.961Z,2.53
2018-03-12T09:14:43.915Z,2.90
2018-03-12T09:17:10.885Z,2.30
2018-03-12T09:19:37.424Z,3.05
2018-03-12T09:22:04.371Z,2.50
2018-03-12T09:24:31.313Z,2.20
2018-03-12T09:26:57.846Z,2.30
2018-03-12T09:29:24.410Z,2.53
2018-03-12T09:31:50.978Z,1.87
2018-03-12T09:34:17.882Z,1.60
2018-03-12T09:36:44.432Z,2.00
2018-03-12T09:39:11.168Z,1.75
2018-03-12T09:41:37.697Z,1.87
2018-03-12T09:44:04.270Z,2.10
2018-03-12T09:46:30.834Z,2.00
2018-03-12T09:48:57.372Z,1.73
2018-03-12T09:51:23.930Z,2.00
2018-03-12T09:53:50.505Z,1.93
2018-03-12T09:56:17.409Z,1.67
2018-03-12T09:58:43.975Z,1.65
2018-03-12T10:01:10.575Z,1.90
2018-03-12T10:03:37.479Z,1.87
2018-03-12T10:06:04.091Z,1.57
2018-03-12T10:08:30.665Z,1.53
2018-03-12T10:10:57.251Z,2.10
2018-03-12T10:13:23.798Z,1.40
2018-03-12T10:15:50.357Z,1.70
2018-03-12T10:18:17.269Z,1.37
2018-03-12T10:20:43.837Z,1.23
2018-03-12T10:23:10.397Z,1.23
2018-03-12T10:25:36.937Z,1.63
2018-03-12T10:28:03.545Z,1.37
2018-03-12T10:30:30.171Z,2.43
2018-03-12T10:32:56.712Z,1.40
2018-03-12T10:35:23.281Z,0.93
2018-03-12T10:37:49.854Z,1.60
2018-03-12T10:40:16.397Z,1.50
2018-03-12T10:42:42.962Z,1.17
2018-03-12T10:45:09.540Z,1.50
2018-03-12T10:47:36.110Z,1.50
2018-03-12T10:50:02.744Z,1.57
2018-03-12T10:52:29.673Z,1.43
2018-03-12T10:54:56.206Z,1.43
2018-03-12T10:57:22.776Z,1.13
2018-03-12T10:59:49.706Z,1.30
2018-03-12T11:02:16.286Z,1.10
2018-03-12T11:07:47.675Z,0.90
2018-03-12T11:10:14.631Z,1.10
2018-03-12T11:12:41.582Z,0.70
2018-03-12T11:15:08.497Z,0.50
2018-03-12T11:17:35.070Z,0.70
2018-03-12T11:20:01.644Z,0.60
2018-03-12T11:22:28.549Z,0.73
2018-03-12T11:24:55.113Z,0.93
2018-03-12T11:27:21.673Z,0.77
2018-03-12T11:29:48.243Z,0.90
2018-03-12T11:32:15.186Z,0.97
2018-03-12T11:34:41.753Z,0.90
2018-03-12T11:37:08.657Z,0.80
2018-03-12T11:39:35.229Z,0.97
2018-03-12T11:42:01.840Z,1.10
2018-03-12T11:44:28.386Z,1.03
2018-03-12T11:46:54.950Z,1.13
2018-03-12T11:49:21.521Z,1.10
2018-03-12T11:51:48.061Z,1.00
2018-03-12T11:54:14.628Z,1.10
2018-03-12T11:56:41.574Z,1.00
2018-03-12T11:59:08.109Z,1.20
2018-03-12T12:01:34.685Z,1.10
2018-03-12T12:04:01.271Z,1.17
2018-03-12T12:06:27.881Z,1.40
2018-03-12T12:08:54.825Z,1.50
2018-03-12T12:11:21.395Z,1.80
2018-03-12T12:13:48.333Z,1.20
2018-03-12T12:16:15.273Z,1.20
2018-03-12T12:18:41.845Z,1.10
2018-03-12T12:21:08.746Z,1.37
2018-03-12T12:23:35.313Z,1.60
2018-03-12T12:26:01.885Z,1.60
2018-03-12T12:28:28.794Z,1.70
2018-03-12T12:30:55.397Z,1.60
2018-03-12T12:33:22.392Z,1.90
2018-03-12T12:35:48.951Z,1.80
2018-03-12T12:38:15.513Z,1.60
2018-03-12T12:40:42.080Z,1.43
2018-03-12T12:43:08.618Z,1.30
2018-03-12T12:45:35.181Z,1.27
2018-03-12T12:48:01.761Z,1.60
2018-03-12T12:50:28.318Z,2.00
2018-03-12T12:52:54.907Z,2.07
2018-03-12T12:55:21.486Z,1.60
2018-03-12T12:57:48.395Z,2.00
2018-03-12T13:00:14.949Z,1.20
2018-03-12T13:02:41.558Z,1.17
2018-03-12T13:05:08.086Z,1.40
2018-03-12T13:07:35.057Z,1.27
2018-03-12T13:10:01.701Z,1.43
2018-03-12T13:12:28.250Z,1.10
2018-03-12T13:14:54.818Z,1.17
2018-03-12T13:17:21.393Z,1.70
2018-03-12T13:19:47.961Z,1.40
2018-03-12T13:22:14.518Z,1.53
2018-03-12T13:24:41.084Z,1.00
2018-03-12T13:27:07.785Z,1.23
2018-03-12T13:29:34.352Z,1.17
2018-03-12T13:32:00.931Z,1.30
2018-03-12T13:34:27.473Z,1.83
2018-03-12T13:36:54.414Z,1.43
2018-03-12T13:39:21.354Z,1.40
2018-03-12T13:41:47.902Z,1.53
2018-03-12T13:44:14.478Z,1.70
2018-03-12T13:46:41.415Z,1.13
2018-03-12T13:49:07.947Z,1.20
2018-03-12T13:51:34.586Z,1.40
2018-03-12T13:54:01.175Z,2.20
2018-03-12T13:56:27.741Z,1.73
2018-03-12T13:58:54.309Z,2.50
2018-03-12T14:01:20.879Z,2.03
2018-03-12T14:03:47.471Z,2.30
2018-03-12T14:06:14.446Z,3.17
2018-03-12T14:08:41.061Z,2.60
2018-03-12T14:11:07.594Z,1.23
2018-03-12T14:13:34.163Z,1.50
2018-03-12T14:16:01.116Z,1.80
2018-03-12T14:18:28.034Z,1.30
2018-03-12T14:20:54.608Z,1.20
2018-03-12T14:23:21.188Z,1.87
2018-03-12T14:25:47.730Z,1.47
2018-03-12T14:28:14.318Z,1.37
2018-03-12T14:30:40.920Z,1.00
2018-03-12T14:33:07.468Z,1.00
2018-03-12T14:35:34.397Z,1.00
2018-03-12T14:38:00.973Z,0.93
2018-03-12T14:40:27.509Z,1.00
2018-03-12T14:42:54.446Z,1.27
2018-03-12T14:45:21.017Z,1.20
2018-03-12T14:47:47.914Z,1.57
2018-03-12T14:50:14.485Z,1.30
2018-03-12T14:52:41.049Z,1.97
2018-03-12T14:55:07.586Z,1.30
2018-03-12T14:57:34.154Z,1.40
2018-03-12T15:00:01.166Z,1.40
2018-03-12T15:02:27.710Z,1.80
2018-03-12T15:04:54.278Z,1.50
2018-03-12T15:07:20.886Z,1.23
2018-03-12T15:09:47.426Z,1.33
2018-03-12T15:12:13.993Z,1.20
2018-03-12T15:14:40.574Z,1.23
2018-03-12T15:17:07.118Z,1.40
2018-03-12T15:19:33.743Z,1.50
2018-03-12T15:22:00.302Z,1.50
2018-03-12T15:24:26.842Z,1.20
2018-03-12T15:26:53.438Z,1.07
2018-03-12T15:29:20.388Z,1.27
2018-03-12T15:31:47.301Z,1.37
2018-03-12T15:34:13.875Z,1.97
2018-03-12T15:36:40.441Z,1.70
2018-03-12T15:39:07.360Z,1.47
2018-03-12T15:41:33.929Z,1.60
2018-03-12T15:44:00.498Z,1.37
2018-03-12T15:46:27.412Z,1.53
2018-03-12T15:48:53.990Z,1.53
2018-03-12T15:51:20.934Z,1.30
2018-03-12T15:53:47.472Z,1.40
2018-03-12T15:56:14.054Z,1.90
2018-03-12T15:58:41.004Z,1.77
2018-03-12T16:01:08.130Z,1.30
2018-03-12T16:03:34.780Z,1.10
2018-03-12T16:06:01.352Z,1.00
2018-03-12T16:08:27.922Z,0.90
2018-03-12T16:10:54.495Z,1.17
2018-03-12T16:13:21.147Z,1.20
2018-03-12T16:15:47.682Z,1.13
2018-03-12T16:18:14.250Z,1.10
2018-03-12T16:20:40.834Z,1.17
2018-03-12T16:23:14.255Z,1.10
2018-03-12T16:25:41.202Z,1.50
2018-03-12T16:28:08.145Z,1.50
2018-03-12T16:30:34.710Z,1.10
2018-03-12T16:33:01.674Z,1.20
2018-03-12T16:35:28.322Z,1.05
2018-03-12T16:37:55.261Z,1.20
2018-03-12T16:40:21.840Z,0.70
2018-03-12T16:42:48.386Z,0.65
2018-03-12T16:45:15.326Z,0.70
2018-03-12T16:47:42.267Z,0.80
2018-03-12T16:50:08.813Z,0.60
2018-03-12T16:52:35.386Z,0.90
2018-03-12T16:55:02.334Z,0.80
2018-03-12T16:57:29.241Z,0.60
2018-03-12T16:59:55.825Z,0.85
2018-03-12T17:02:22.403Z,0.60
2018-03-12T17:04:48.954Z,0.65
2018-03-12T17:07:15.549Z,1.00
2018-03-12T17:09:42.133Z,1.08
2018-03-12T17:12:09.043Z,0.60
2018-03-12T17:14:35.609Z,0.70
2018-03-12T17:17:02.187Z,0.70
2018-03-12T17:19:29.122Z,0.90
2018-03-12T17:21:56.637Z,0.77
2018-03-12T17:24:23.235Z,0.80
2018-03-12T17:26:49.779Z,1.05
2018-03-12T17:29:16.350Z,1.25
2018-03-12T17:31:43.290Z,0.73
2018-03-12T17:34:09.827Z,0.90
2018-03-12T17:36:36.413Z,0.77
2018-03-12T17:39:03.474Z,0.80
2018-03-12T17:41:30.035Z,0.80
2018-03-12T17:43:56.613Z,0.85
2018-03-12T17:46:23.190Z,0.90
2018-03-12T17:48:49.754Z,1.20
2018-03-12T17:51:16.789Z,0.93
2018-03-12T17:53:43.373Z,0.98
2018-03-12T17:56:09.906Z,0.80
2018-03-12T17:58:36.506Z,0.88
2018-03-12T18:01:03.106Z,0.70
2018-03-12T18:03:30.010Z,0.90
2018-03-12T18:05:56.614Z,0.85
2018-03-12T18:08:23.618Z,0.77
2018-03-12T18:10:50.200Z,0.85
2018-03-12T18:13:17.179Z,0.80
2018-03-12T18:15:44.139Z,0.70
2018-03-12T18:18:10.746Z,0.90
2018-03-12T18:20:37.323Z,0.70
2018-03-12T18:23:03.914Z,0.60
2018-03-12T18:25:30.455Z,1.08
2018-03-12T18:27:57.017Z,0.82
2018-03-12T18:30:23.586Z,0.70
2018-03-12T18:32:50.129Z,0.70
2018-03-12T18:35:16.726Z,0.85
2018-03-12T18:37:43.298Z,1.15
2018-03-12T18:40:09.969Z,0.75
2018-03-12T18:42:36.954Z,0.68
2018-03-12T18:45:03.934Z,0.80
2018-03-12T18:47:30.477Z,0.90
2018-03-12T18:49:57.054Z,0.80
2018-03-12T18:52:23.626Z,0.90
2018-03-12T18:54:50.158Z,1.12
2018-03-12T18:57:16.730Z,0.62
2018-03-12T18:59:43.298Z,0.70
2018-03-12T19:02:10.317Z,0.80
2018-03-12T19:04:36.913Z,0.73
2018-03-12T19:07:03.905Z,1.02
2018-03-12T19:09:30.482Z,0.80
2018-03-12T19:11:57.070Z,1.00
2018-03-12T19:14:24.049Z,0.80
2018-03-12T19:16:50.604Z,0.90
2018-03-12T19:19:17.170Z,1.10
2018-03-12T19:21:43.737Z,0.90
2018-03-12T19:24:10.687Z,0.70
2018-03-12T19:26:37.253Z,0.80
2018-03-12T19:29:03.878Z,0.80
2018-03-12T19:31:30.490Z,0.82
2018-03-12T19:33:57.466Z,1.45
2018-03-12T19:36:24.046Z,1.75
2018-03-12T19:38:50.805Z,1.33
2018-03-12T19:41:17.677Z,2.25
2018-03-12T19:43:44.695Z,1.30
2018-03-12T19:46:11.362Z,1.50
2018-03-12T19:48:37.978Z,3.00
2018-03-12T19:51:04.562Z,2.03
2018-03-12T19:53:31.098Z,1.40
2018-03-12T19:55:57.840Z,1.10
2018-03-12T19:58:24.495Z,0.80
2018-03-12T20:00:51.049Z,0.50
2018-03-12T20:03:17.638Z,0.80
2018-03-12T20:05:45.392Z,0.80
2018-03-12T20:08:15.990Z,6.25
2018-03-12T20:10:42.766Z,7.47
2018-03-12T20:13:12.457Z,9.40
2018-03-12T20:15:41.457Z,5.25
2018-03-12T20:18:10.322Z,6.03
2018-03-12T20:20:37.262Z,3.40
2018-03-12T20:23:03.914Z,4.30
2018-03-12T20:25:30.945Z,2.47
2018-03-12T20:27:58.497Z,0.60
2018-03-12T20:30:25.075Z,0.70
2018-03-12T20:32:52.571Z,0.70
2018-03-12T20:35:19.563Z,0.60
2018-03-12T20:37:46.097Z,0.70
2018-03-12T20:40:13.378Z,1.27
2018-03-12T20:42:40.745Z,0.62
2018-03-12T20:45:07.765Z,0.60
2018-03-12T20:47:34.730Z,0.70
2018-03-12T20:50:02.010Z,0.50
2018-03-12T20:52:29.100Z,0.62
2018-03-12T20:54:55.672Z,1.00
2018-03-12T20:57:22.403Z,0.55
2018-03-12T20:59:49.293Z,0.68
2018-03-12T21:02:17.198Z,0.60
2018-03-12T21:04:43.785Z,0.80
2018-03-12T21:07:11.351Z,0.60
2018-03-12T21:09:38.122Z,0.60
2018-03-12T21:12:04.694Z,0.77
2018-03-12T21:14:31.669Z,0.70
2018-03-12T21:16:58.238Z,0.60
2018-03-12T21:19:24.806Z,0.80
2018-03-12T21:21:51.342Z,0.80
2018-03-12T21:24:18.024Z,0.50
2018-03-12T21:26:44.656Z,0.60
2018-03-12T21:29:11.205Z,0.70
2018-03-12T21:31:37.782Z,1.05
2018-03-12T21:34:04.739Z,0.62
2018-03-12T21:36:31.663Z,1.60
2018-03-12T21:38:58.415Z,13.38
2018-03-12T21:41:25.038Z,5.10
2018-03-12T21:43:51.681Z,1.10
2018-03-12T21:46:18.261Z,1.95
2018-03-12T21:48:44.833Z,1.40
2018-03-12T21:51:11.754Z,1.00
2018-03-12T21:53:38.314Z,0.62
2018-03-12T21:56:04.907Z,0.60
2018-03-12T21:58:31.515Z,0.80
2018-03-12T22:00:58.126Z,0.77
2018-03-12T22:03:24.811Z,0.60
2018-03-12T22:05:51.495Z,0.60
2018-03-12T22:08:18.509Z,0.68
2018-03-12T22:10:45.676Z,0.50
2018-03-12T22:13:12.210Z,0.60
2018-03-12T22:15:38.842Z,0.60
2018-03-12T22:18:05.409Z,0.60
2018-03-12T22:20:31.942Z,0.50
2018-03-12T22:22:58.615Z,0.50
2018-03-12T22:25:25.182Z,0.75
2018-03-12T22:27:51.733Z,0.60
2018-03-12T22:30:18.299Z,0.73
2018-03-12T22:32:44.865Z,0.50
2018-03-12T22:35:11.404Z,0.60
2018-03-12T22:37:38.204Z,0.50
2018-03-12T22:40:04.821Z,0.40
2018-03-12T22:42:31.399Z,0.60
2018-03-12T22:44:58.010Z,0.50
2018-03-12T22:47:24.587Z,0.60
2018-03-12T22:49:51.222Z,0.73
2018-03-12T22:52:17.896Z,0.57
2018-03-12T22:54:44.545Z,0.80
2018-03-12T22:57:11.091Z,0.50
2018-03-12T22:59:37.714Z,0.50
2018-03-12T23:02:04.298Z,0.70
2018-03-12T23:04:30.942Z,0.80
2018-03-12T23:06:57.587Z,0.50
2018-03-12T23:09:24.243Z,0.60
2018-03-12T23:11:50.817Z,0.70
2018-03-12T23:14:17.810Z,0.70
2018-03-12T23:16:44.462Z,0.62
2018-03-12T23:19:10.993Z,0.70
2018-03-12T23:21:37.558Z,0.50
2018-03-12T23:24:04.137Z,0.50
2018-03-12T23:26:30.754Z,0.60
2018-03-12T23:28:57.326Z,0.70
2018-03-12T23:31:23.894Z,0.80
2018-03-12T23:33:50.523Z,0.50
2018-03-12T23:36:17.086Z,0.70
2018-03-12T23:38:43.657Z,0.70
2018-03-12T23:41:10.782Z,0.70
2018-03-12T23:43:37.406Z,0.60
2018-03-12T23:46:04.050Z,0.60
2018-03-12T23:48:30.585Z,0.60
2018-03-12T23:50:57.152Z,0.50
2018-03-12T23:53:23.716Z,0.60
2018-03-12T23:55:50.369Z,0.65
2018-03-12T23:58:16.994Z,0.60
